Time;durP1;ratioP1;P1;durP2;ratioP2;P2;SDS_P1;SDS_P2;PMS_P1;PMS_P2;Temp;Humidity;BMP_temperature;BMP_pressure;BME280_temperature;BME280_humidity;BME280_pressure;Samples;Min_cycle;Max_cycle;Signal;HPM_P1;HPM_P2
2023/02/06 00:00:13;;;;;;;4.77;1.13;;;;;;;;;;5076991;28;20017;-75
2023/02/06 00:02:39;;;;;;;6.53;1.07;;;;;;;;;;5087637;28;20093;-75
2023/02/06 00:05:04;;;;;;;6.00;0.90;;;;;;;;;;5091821;28;20028;-76
2023/02/06 00:07:29;;;;;;;8.70;1.57;;;;;;;;;;5090436;28;20075;-75
2023/02/06 00:09:54;;;;;;;4.40;1.30;;;;;;;;;;5091561;28;20016;-75
2023/02/06 00:12:20;;;;;;;5.53;1.13;;;;;;;;;;5083946;28;20024;-75
2023/02/06 00:14:45;;;;;;;7.47;1.03;;;;;;;;;;5090458;28;20012;-75
2023/02/06 00:17:10;;;;;;;2.10;0.80;;;;;;;;;;5090417;28;20153;-75
2023/02/06 00:19:36;;;;;;;10.77;1.23;;;;;;;;;;5091437;28;20036;-75
2023/02/06 00:22:02;;;;;;;6.10;1.97;;;;;;;;;;5090845;28;20031;-75
2023/02/06 00:24:27;;;;;;;5.87;1.20;;;;;;;;;;5069885;28;20471;-75
2023/02/06 00:26:52;;;;;;;3.67;1.07;;;;;;;;;;5071631;28;20025;-75
2023/02/06 00:29:17;;;;;;;2.13;0.87;;;;;;;;;;5071425;28;20020;-75
2023/02/06 00:31:42;;;;;;;7.93;1.00;;;;;;;;;;5071621;28;20052;-75
2023/02/06 00:34:08;;;;;;;1.67;0.80;;;;;;;;;;5069192;28;20020;-75
2023/02/06 00:36:33;;;;;;;4.57;1.30;;;;;;;;;;5071636;28;20012;-75
2023/02/06 00:38:58;;;;;;;5.93;1.03;;;;;;;;;;5071661;28;20122;-75
2023/02/06 00:41:23;;;;;;;3.43;1.00;;;;;;;;;;5069904;28;20024;-75
2023/02/06 00:43:48;;;;;;;3.73;1.37;;;;;;;;;;5070889;28;20021;-75
2023/02/06 00:46:14;;;;;;;3.47;0.97;;;;;;;;;;5074225;28;20483;-75
2023/02/06 00:48:39;;;;;;;7.57;1.20;;;;;;;;;;5074752;28;20024;-75
2023/02/06 00:51:04;;;;;;;1.80;0.67;;;;;;;;;;5075403;28;20028;-75
2023/02/06 00:53:29;;;;;;;7.23;0.80;;;;;;;;;;5075314;28;20367;-75
2023/02/06 00:55:54;;;;;;;3.40;1.13;;;;;;;;;;5075172;28;20059;-75
2023/02/06 00:58:20;;;;;;;4.13;0.97;;;;;;;;;;5074180;28;20412;-75
2023/02/06 01:00:45;;;;;;;8.67;0.83;;;;;;;;;;5075047;28;20021;-75
2023/02/06 01:03:10;;;;;;;4.03;1.10;;;;;;;;;;5073675;28;20020;-75
2023/02/06 01:05:36;;;;;;;2.03;1.10;;;;;;;;;;5073686;28;20082;-75
2023/02/06 01:08:01;;;;;;;7.10;1.37;;;;;;;;;;5078104;28;20024;-75
2023/02/06 01:10:26;;;;;;;9.10;1.63;;;;;;;;;;5095055;28;20016;-75
2023/02/06 01:12:51;;;;;;;5.30;1.70;;;;;;;;;;5076677;28;20013;-75
2023/02/06 01:15:17;;;;;;;5.93;1.00;;;;;;;;;;5087558;28;20020;-75
2023/02/06 01:17:42;;;;;;;5.10;0.87;;;;;;;;;;5093494;28;20475;-75
2023/02/06 01:20:09;;;;;;;3.97;0.93;;;;;;;;;;5094929;28;20052;-75
2023/02/06 01:22:34;;;;;;;4.50;1.33;;;;;;;;;;5080394;28;20492;-75
2023/02/06 01:25:00;;;;;;;2.40;1.20;;;;;;;;;;5074531;28;20016;-75
2023/02/06 01:27:25;;;;;;;5.07;1.03;;;;;;;;;;5070515;28;20063;-75
2023/02/06 01:29:50;;;;;;;14.20;1.30;;;;;;;;;;5072120;28;20108;-75
2023/02/06 01:32:15;;;;;;;4.63;1.33;;;;;;;;;;5072972;28;20024;-75
2023/02/06 01:34:41;;;;;;;1.47;0.80;;;;;;;;;;5073183;28;20506;-75
2023/02/06 01:37:06;;;;;;;9.40;1.80;;;;;;;;;;5073504;28;20494;-75
2023/02/06 01:39:31;;;;;;;4.10;1.60;;;;;;;;;;5074072;28;20017;-75
2023/02/06 01:41:57;;;;;;;7.13;1.20;;;;;;;;;;5074289;28;20033;-75
2023/02/06 01:44:23;;;;;;;2.40;0.90;;;;;;;;;;5071463;28;20094;-75
2023/02/06 01:46:53;;;;;;;2.57;0.97;;;;;;;;;;5073287;28;20024;-75
2023/02/06 01:49:21;;;;;;;3.77;0.97;;;;;;;;;;5071730;28;20047;-75
2023/02/06 01:51:47;;;;;;;2.70;1.23;;;;;;;;;;5072782;28;20055;-75
2023/02/06 01:54:13;;;;;;;5.50;1.00;;;;;;;;;;5072122;28;20405;-75
2023/02/06 01:56:41;;;;;;;6.20;1.37;;;;;;;;;;5074116;28;20043;-75
2023/02/06 01:59:07;;;;;;;4.50;0.93;;;;;;;;;;5071874;28;20013;-75
2023/02/06 02:01:32;;;;;;;5.37;0.70;;;;;;;;;;5073768;28;20012;-75
2023/02/06 02:04:03;;;;;;;4.67;1.00;;;;;;;;;;5073929;28;20016;-75
2023/02/06 02:06:28;;;;;;;5.80;0.90;;;;;;;;;;5074034;28;20071;-75
2023/02/06 02:08:54;;;;;;;5.40;1.00;;;;;;;;;;5074042;28;20344;-75
2023/02/06 02:11:26;;;;;;;2.57;0.60;;;;;;;;;;5073213;28;20028;-75
2023/02/06 02:13:51;;;;;;;7.07;1.00;;;;;;;;;;5073849;28;20025;-75
2023/02/06 02:16:21;;;;;;;4.73;1.10;;;;;;;;;;5072428;28;20043;-75
2023/02/06 02:18:55;;;;;;;1.03;0.60;;;;;;;;;;5073671;28;20107;-75
2023/02/06 02:21:35;;;;;;;2.00;0.80;;;;;;;;;;5073791;28;20476;-75
2023/02/06 02:24:00;;;;;;;5.73;1.13;;;;;;;;;;5060883;28;20078;-76
2023/02/06 02:26:44;;;;;;;1.00;0.60;;;;;;;;;;5070861;28;20128;-75
2023/02/06 02:29:35;;;;;;;4.00;0.70;;;;;;;;;;5060968;28;20530;-75
2023/02/06 02:32:00;;;;;;;5.80;1.00;;;;;;;;;;5073348;28;20042;-75
2023/02/06 02:34:41;;;;;;;3.03;1.23;;;;;;;;;;5073482;28;20042;-75
2023/02/06 02:37:22;;;;;;;5.00;0.87;;;;;;;;;;5072389;28;20056;-75
2023/02/06 02:39:57;;;;;;;2.45;0.90;;;;;;;;;;5073238;28;20043;-75
2023/02/06 02:42:28;;;;;;;3.40;0.90;;;;;;;;;;5073040;28;20059;-75
2023/02/06 02:45:03;;;;;;;5.60;1.10;;;;;;;;;;5067401;28;20090;-75
2023/02/06 02:47:30;;;;;;;4.33;1.07;;;;;;;;;;5069291;28;20541;-75
2023/02/06 02:49:59;;;;;;;8.83;1.20;;;;;;;;;;5069605;28;20036;-75
2023/02/06 02:52:24;;;;;;;4.37;1.00;;;;;;;;;;5085016;28;20013;-75
2023/02/06 02:54:49;;;;;;;6.13;1.03;;;;;;;;;;5073140;28;20013;-75
2023/02/06 02:57:18;;;;;;;2.93;0.70;;;;;;;;;;5073179;28;20016;-75
2023/02/06 02:59:45;;;;;;;3.23;1.00;;;;;;;;;;5071361;28;20029;-75
2023/02/06 03:02:16;;;;;;;2.77;0.80;;;;;;;;;;5072920;28;20021;-75
2023/02/06 03:04:44;;;;;;;4.13;0.90;;;;;;;;;;5072663;28;20028;-75
2023/02/06 03:07:16;;;;;;;8.10;1.13;;;;;;;;;;5070592;28;20093;-75
2023/02/06 03:09:59;;;;;;;2.70;0.47;;;;;;;;;;5071600;28;20016;-75
2023/02/06 03:12:31;;;;;;;2.13;0.80;;;;;;;;;;5071426;28;20104;-75
2023/02/06 03:15:08;;;;;;;3.20;1.10;;;;;;;;;;5072655;28;20016;-75
2023/02/06 03:17:36;;;;;;;6.37;0.93;;;;;;;;;;5072545;28;20046;-75
2023/02/06 03:20:03;;;;;;;5.43;1.27;;;;;;;;;;5072218;28;20089;-75
2023/02/06 03:22:29;;;;;;;4.07;1.00;;;;;;;;;;5071449;28;20021;-75
2023/02/06 03:24:55;;;;;;;2.80;0.87;;;;;;;;;;5072394;28;20016;-75
2023/02/06 03:27:21;;;;;;;2.77;1.43;;;;;;;;;;5072382;28;20059;-75
2023/02/06 03:29:48;;;;;;;3.70;1.30;;;;;;;;;;5070906;28;20044;-75
2023/02/06 03:32:20;;;;;;;7.23;0.70;;;;;;;;;;5070743;28;20020;-75
2023/02/06 03:34:56;;;;;;;4.10;1.52;;;;;;;;;;5070778;28;20028;-75
2023/02/06 03:37:22;;;;;;;2.40;0.80;;;;;;;;;;5070077;28;20035;-75
2023/02/06 03:39:47;;;;;;;3.23;0.90;;;;;;;;;;5072074;28;20437;-75
2023/02/06 03:42:14;;;;;;;6.47;1.00;;;;;;;;;;5072028;28;20028;-75
2023/02/06 03:44:41;;;;;;;1.93;1.00;;;;;;;;;;5067073;28;20056;-75
2023/02/06 03:47:08;;;;;;;2.37;1.43;;;;;;;;;;5062378;28;20028;-75
2023/02/06 03:49:36;;;;;;;9.17;1.20;;;;;;;;;;5072086;28;20032;-75
2023/02/06 03:52:06;;;;;;;1.80;0.77;;;;;;;;;;5070854;28;20105;-75
2023/02/06 03:54:32;;;;;;;2.27;0.97;;;;;;;;;;5071904;28;20375;-75
2023/02/06 03:56:59;;;;;;;5.70;0.83;;;;;;;;;;5069081;28;20038;-75
2023/02/06 03:59:24;;;;;;;3.13;0.90;;;;;;;;;;5071869;28;20036;-75
2023/02/06 04:01:51;;;;;;;3.90;0.97;;;;;;;;;;5072173;28;20508;-75
2023/02/06 04:04:18;;;;;;;1.43;0.73;;;;;;;;;;5070415;28;20111;-75
2023/02/06 04:06:44;;;;;;;1.10;0.63;;;;;;;;;;5070371;28;20032;-75
2023/02/06 04:09:09;;;;;;;4.40;0.90;;;;;;;;;;5071798;28;20027;-75
2023/02/06 04:11:35;;;;;;;4.63;0.97;;;;;;;;;;5071566;28;20020;-75
2023/02/06 04:14:00;;;;;;;6.80;0.97;;;;;;;;;;5071745;28;20034;-75
2023/02/06 04:16:25;;;;;;;2.13;1.40;;;;;;;;;;5071776;28;20012;-75
2023/02/06 04:18:50;;;;;;;5.97;0.77;;;;;;;;;;5069392;28;20077;-75
2023/02/06 04:21:15;;;;;;;7.13;1.50;;;;;;;;;;5069566;28;20478;-75
2023/02/06 04:23:41;;;;;;;3.77;0.77;;;;;;;;;;5071808;28;20020;-75
2023/02/06 04:26:06;;;;;;;1.43;0.63;;;;;;;;;;5071643;28;20051;-75
2023/02/06 04:28:31;;;;;;;5.30;1.33;;;;;;;;;;5069603;28;20028;-75
2023/02/06 04:30:58;;;;;;;4.67;1.10;;;;;;;;;;5069012;28;20371;-75
2023/02/06 04:33:23;;;;;;;1.73;0.70;;;;;;;;;;5071274;28;20051;-75
2023/02/06 04:35:49;;;;;;;1.87;0.87;;;;;;;;;;5071310;28;20043;-75
2023/02/06 04:38:14;;;;;;;2.23;0.73;;;;;;;;;;5071744;28;20078;-75
2023/02/06 04:40:39;;;;;;;6.10;0.70;;;;;;;;;;5069982;28;20017;-75
2023/02/06 04:43:04;;;;;;;4.53;0.90;;;;;;;;;;5071507;28;20104;-75
2023/02/06 04:45:29;;;;;;;3.37;1.30;;;;;;;;;;5071408;28;20460;-75
2023/02/06 04:47:55;;;;;;;2.33;0.83;;;;;;;;;;5071321;28;20120;-75
2023/02/06 04:50:20;;;;;;;2.80;0.97;;;;;;;;;;5070321;28;20016;-75
2023/02/06 04:52:45;;;;;;;1.87;0.80;;;;;;;;;;5070698;28;20028;-75
2023/02/06 04:55:10;;;;;;;2.90;1.43;;;;;;;;;;5071766;28;20085;-75
2023/02/06 04:57:36;;;;;;;2.43;1.20;;;;;;;;;;5071313;28;20024;-75
2023/02/06 05:00:02;;;;;;;7.57;1.33;;;;;;;;;;5069964;28;20070;-75
2023/02/06 05:02:27;;;;;;;2.90;0.70;;;;;;;;;;5069032;28;20021;-75
2023/02/06 05:04:53;;;;;;;4.83;0.60;;;;;;;;;;5071235;28;20035;-75
2023/02/06 05:07:18;;;;;;;3.37;0.40;;;;;;;;;;5071394;28;20016;-75
2023/02/06 05:09:43;;;;;;;8.10;1.27;;;;;;;;;;5069760;28;20475;-75
2023/02/06 05:12:08;;;;;;;2.10;1.00;;;;;;;;;;5071243;28;20017;-75
2023/02/06 05:14:34;;;;;;;2.27;0.83;;;;;;;;;;5070036;28;20032;-75
2023/02/06 05:16:59;;;;;;;2.30;1.00;;;;;;;;;;5069921;28;20044;-75
2023/02/06 05:19:24;;;;;;;3.03;0.97;;;;;;;;;;5070933;28;20123;-75
2023/02/06 05:21:49;;;;;;;9.13;1.30;;;;;;;;;;5069588;28;20028;-75
2023/02/06 05:24:15;;;;;;;7.83;0.97;;;;;;;;;;5071153;28;20017;-75
2023/02/06 05:26:40;;;;;;;4.70;0.90;;;;;;;;;;5069993;28;20021;-75
2023/02/06 05:29:05;;;;;;;7.23;0.93;;;;;;;;;;5071008;28;20021;-75
2023/02/06 05:31:30;;;;;;;2.63;0.90;;;;;;;;;;5074503;28;20111;-75
2023/02/06 05:33:55;;;;;;;2.97;1.67;;;;;;;;;;5074304;28;20351;-75
2023/02/06 05:36:21;;;;;;;3.73;0.70;;;;;;;;;;5074627;28;20012;-75
2023/02/06 05:38:47;;;;;;;1.27;0.60;;;;;;;;;;5073475;28;20024;-75
2023/02/06 05:41:12;;;;;;;2.50;1.00;;;;;;;;;;5074306;28;20364;-75
2023/02/06 05:43:37;;;;;;;4.73;0.90;;;;;;;;;;5072924;28;20020;-75
2023/02/06 05:46:02;;;;;;;5.27;1.20;;;;;;;;;;5064177;28;20020;-75
2023/02/06 05:48:29;;;;;;;3.00;0.97;;;;;;;;;;5074525;28;20040;-75
2023/02/06 05:50:54;;;;;;;3.13;1.13;;;;;;;;;;5072074;28;20027;-75
2023/02/06 05:53:19;;;;;;;4.57;1.63;;;;;;;;;;5072968;28;20020;-75
2023/02/06 05:55:45;;;;;;;3.90;1.13;;;;;;;;;;5074208;28;20044;-75
2023/02/06 05:58:10;;;;;;;2.47;1.03;;;;;;;;;;5072919;28;20379;-75
2023/02/06 06:00:35;;;;;;;3.60;1.23;;;;;;;;;;5074119;28;20029;-75
2023/02/06 06:03:00;;;;;;;3.07;0.90;;;;;;;;;;5073033;28;20112;-75
2023/02/06 06:05:25;;;;;;;4.77;1.40;;;;;;;;;;5072472;28;20044;-75
2023/02/06 06:07:51;;;;;;;4.80;2.10;;;;;;;;;;5072229;28;20016;-76
2023/02/06 06:10:16;;;;;;;5.23;1.80;;;;;;;;;;5072413;28;20016;-75
2023/02/06 06:12:41;;;;;;;7.97;2.73;;;;;;;;;;5073860;28;20013;-75
2023/02/06 06:15:06;;;;;;;5.70;2.80;;;;;;;;;;5072845;28;20009;-75
2023/02/06 06:17:32;;;;;;;7.37;2.60;;;;;;;;;;5072886;28;20490;-75
2023/02/06 06:20:00;;;;;;;6.70;2.50;;;;;;;;;;5072285;28;20031;-75
2023/02/06 06:22:26;;;;;;;6.07;2.10;;;;;;;;;;5073658;28;20076;-75
2023/02/06 06:24:51;;;;;;;3.53;1.47;;;;;;;;;;5072489;28;20101;-75
2023/02/06 06:27:16;;;;;;;5.70;1.80;;;;;;;;;;5073657;28;20484;-75
2023/02/06 06:29:42;;;;;;;6.23;2.70;;;;;;;;;;5073403;28;20039;-75
2023/02/06 06:32:07;;;;;;;7.03;2.07;;;;;;;;;;5073675;28;20078;-75
2023/02/06 06:34:32;;;;;;;6.63;2.00;;;;;;;;;;5073515;28;20020;-75
2023/02/06 06:36:57;;;;;;;5.77;1.80;;;;;;;;;;5072632;28;20422;-75
2023/02/06 06:39:23;;;;;;;4.30;1.93;;;;;;;;;;5071727;28;20027;-75
2023/02/06 06:41:48;;;;;;;2.83;1.30;;;;;;;;;;5069856;28;20021;-75
2023/02/06 06:44:13;;;;;;;6.53;1.80;;;;;;;;;;5072666;28;20055;-75
2023/02/06 06:46:38;;;;;;;5.23;1.63;;;;;;;;;;5072128;28;20115;-75
2023/02/06 06:49:03;;;;;;;3.83;1.57;;;;;;;;;;5071795;28;20023;-75
2023/02/06 06:51:29;;;;;;;10.30;2.17;;;;;;;;;;5070182;28;20077;-75
2023/02/06 06:53:57;;;;;;;4.70;2.50;;;;;;;;;;5071807;28;20017;-75
2023/02/06 06:56:22;;;;;;;4.77;1.63;;;;;;;;;;5071488;28;20024;-76
2023/02/06 06:58:49;;;;;;;4.37;1.63;;;;;;;;;;5069127;28;20016;-76
2023/02/06 07:01:14;;;;;;;5.10;1.90;;;;;;;;;;5070253;28;20035;-76
2023/02/06 07:03:43;;;;;;;7.07;2.70;;;;;;;;;;5071913;28;20104;-76
2023/02/06 07:06:08;;;;;;;9.20;3.87;;;;;;;;;;5072731;28;20055;-76
2023/02/06 07:08:34;;;;;;;10.17;3.97;;;;;;;;;;5071590;28;20104;-76
2023/02/06 07:11:00;;;;;;;9.43;3.43;;;;;;;;;;5070704;28;20131;-76
2023/02/06 07:13:25;;;;;;;7.60;2.07;;;;;;;;;;5069271;28;20052;-76
2023/02/06 07:15:50;;;;;;;6.33;2.00;;;;;;;;;;5068801;28;20020;-76
2023/02/06 07:18:15;;;;;;;10.80;2.33;;;;;;;;;;5071387;28;20012;-76
2023/02/06 07:20:40;;;;;;;10.30;2.57;;;;;;;;;;5070407;28;20066;-76
2023/02/06 07:23:06;;;;;;;5.93;2.13;;;;;;;;;;5072310;28;20028;-76
2023/02/06 07:25:31;;;;;;;9.43;2.83;;;;;;;;;;5070065;28;21491;-76
2023/02/06 07:27:56;;;;;;;9.03;3.10;;;;;;;;;;5069603;28;20020;-76
2023/02/06 07:30:21;;;;;;;8.27;3.27;;;;;;;;;;5067567;28;20020;-76
2023/02/06 07:32:47;;;;;;;11.20;3.50;;;;;;;;;;5071703;28;20415;-76
2023/02/06 07:35:14;;;;;;;12.23;3.70;;;;;;;;;;5071192;28;20417;-76
2023/02/06 07:37:39;;;;;;;12.00;4.37;;;;;;;;;;5068446;28;20024;-76
2023/02/06 07:40:04;;;;;;;13.30;3.97;;;;;;;;;;5070512;28;20025;-76
2023/02/06 07:42:31;;;;;;;11.50;4.53;;;;;;;;;;5067777;28;20137;-76
2023/02/06 07:44:56;;;;;;;16.30;5.00;;;;;;;;;;5067485;28;20044;-76
2023/02/06 07:47:21;;;;;;;16.07;7.70;;;;;;;;;;5068606;28;20040;-76
2023/02/06 07:49:47;;;;;;;13.43;4.07;;;;;;;;;;5065491;28;20029;-76
2023/02/06 07:52:13;;;;;;;7.67;2.70;;;;;;;;;;5066095;28;20051;-76
2023/02/06 07:54:38;;;;;;;7.80;3.00;;;;;;;;;;5066589;28;20020;-76
2023/02/06 07:57:03;;;;;;;6.90;2.80;;;;;;;;;;5071297;28;20329;-76
2023/02/06 07:59:28;;;;;;;7.60;3.27;;;;;;;;;;5071654;28;20083;-76
2023/02/06 08:01:53;;;;;;;10.53;3.93;;;;;;;;;;5071115;28;20020;-76
2023/02/06 08:04:19;;;;;;;7.70;3.07;;;;;;;;;;5070469;28;20016;-76
2023/02/06 08:06:44;;;;;;;9.03;3.30;;;;;;;;;;5070634;28;20035;-76
2023/02/06 08:09:13;;;;;;;9.73;3.10;;;;;;;;;;5070541;28;20101;-75
2023/02/06 08:11:38;;;;;;;11.57;4.37;;;;;;;;;;5064353;28;20460;-75
2023/02/06 08:14:03;;;;;;;6.23;2.60;;;;;;;;;;5070510;28;20035;-75
2023/02/06 08:16:28;;;;;;;8.93;3.20;;;;;;;;;;5069446;28;20396;-75
2023/02/06 08:18:54;;;;;;;4.57;2.50;;;;;;;;;;5065977;28;20063;-76
2023/02/06 08:21:20;;;;;;;5.30;2.33;;;;;;;;;;5071481;28;20036;-76
2023/02/06 08:23:45;;;;;;;3.57;1.77;;;;;;;;;;5064471;28;20028;-75
2023/02/06 08:26:12;;;;;;;4.63;2.27;;;;;;;;;;5069456;28;20472;-75
2023/02/06 08:28:38;;;;;;;6.47;2.80;;;;;;;;;;5075248;28;20032;-75
2023/02/06 08:31:07;;;;;;;4.20;2.13;;;;;;;;;;5076692;28;20032;-75
2023/02/06 08:33:33;;;;;;;5.70;2.23;;;;;;;;;;5070938;28;20044;-75
2023/02/06 08:36:01;;;;;;;7.93;1.80;;;;;;;;;;5074700;28;20016;-75
2023/02/06 08:38:26;;;;;;;3.97;1.83;;;;;;;;;;5071350;28;20095;-75
2023/02/06 08:40:52;;;;;;;4.93;2.07;;;;;;;;;;5065158;28;20056;-75
2023/02/06 08:43:17;;;;;;;5.43;2.20;;;;;;;;;;5062303;28;20095;-75
2023/02/06 08:45:46;;;;;;;6.17;1.70;;;;;;;;;;5061032;28;20031;-75
2023/02/06 08:48:11;;;;;;;6.43;1.77;;;;;;;;;;5073103;28;20490;-75
2023/02/06 08:50:36;;;;;;;4.33;1.70;;;;;;;;;;5077919;28;20032;-75
2023/02/06 08:53:02;;;;;;;2.47;1.33;;;;;;;;;;5079121;28;20012;-75
2023/02/06 08:55:27;;;;;;;3.23;1.70;;;;;;;;;;5087005;28;20017;-77
2023/02/06 08:57:52;;;;;;;4.40;1.97;;;;;;;;;;5084421;28;20073;-75
2023/02/06 09:00:18;;;;;;;8.70;1.93;;;;;;;;;;5070660;28;20017;-75
2023/02/06 09:02:44;;;;;;;9.00;2.10;;;;;;;;;;5075993;28;20032;-75
2023/02/06 09:05:09;;;;;;;4.40;1.07;;;;;;;;;;5067972;28;20016;-75
2023/02/06 09:07:34;;;;;;;3.70;1.20;;;;;;;;;;5082602;28;20348;-75
2023/02/06 09:09:59;;;;;;;4.23;1.50;;;;;;;;;;5084612;28;20085;-75
2023/02/06 09:12:24;;;;;;;7.17;2.03;;;;;;;;;;5092851;28;20089;-76
2023/02/06 09:14:50;;;;;;;4.47;2.10;;;;;;;;;;5082055;28;20020;-75
2023/02/06 09:17:15;;;;;;;4.60;1.77;;;;;;;;;;5094939;28;20008;-75
2023/02/06 09:19:40;;;;;;;6.40;1.53;;;;;;;;;;5089286;28;20112;-76
2023/02/06 09:22:05;;;;;;;4.80;2.07;;;;;;;;;;5082964;28;20024;-75
2023/02/06 09:24:31;;;;;;;5.47;2.73;;;;;;;;;;5080724;28;20468;-75
2023/02/06 09:26:56;;;;;;;4.90;2.30;;;;;;;;;;5093673;28;20074;-75
2023/02/06 09:29:21;;;;;;;4.10;1.83;;;;;;;;;;5094888;28;20069;-75
2023/02/06 09:31:47;;;;;;;6.17;2.77;;;;;;;;;;5080525;28;20064;-75
2023/02/06 09:34:12;;;;;;;9.23;3.00;;;;;;;;;;5074232;28;20306;-75
2023/02/06 09:36:37;;;;;;;8.97;2.37;;;;;;;;;;5073552;28;20012;-75
2023/02/06 09:39:04;;;;;;;5.70;2.13;;;;;;;;;;5074219;28;20395;-75
2023/02/06 09:41:32;;;;;;;5.83;2.40;;;;;;;;;;5074340;28;20412;-75
2023/02/06 09:44:04;;;;;;;7.53;2.50;;;;;;;;;;5073788;28;20044;-75
2023/02/06 09:46:31;;;;;;;5.55;2.17;;;;;;;;;;5071594;28;20098;-75
2023/02/06 09:48:57;;;;;;;7.07;2.50;;;;;;;;;;5073816;28;20024;-75
2023/02/06 09:51:41;;;;;;;4.70;1.83;;;;;;;;;;5073227;28;20049;-75
2023/02/06 09:54:09;;;;;;;5.20;2.40;;;;;;;;;;5073731;28;20016;-75
2023/02/06 09:56:43;;;;;;;4.87;2.07;;;;;;;;;;5072516;28;20027;-75
2023/02/06 09:59:14;;;;;;;7.63;2.10;;;;;;;;;;5072487;28;20452;-74
2023/02/06 10:01:42;;;;;;;5.53;2.20;;;;;;;;;;5073468;28;20108;-75
2023/02/06 10:04:13;;;;;;;5.30;1.90;;;;;;;;;;5073517;28;20089;-75
2023/02/06 10:06:38;;;;;;;4.70;2.33;;;;;;;;;;5073703;28;20481;-75
2023/02/06 10:09:09;;;;;;;7.93;2.37;;;;;;;;;;5073455;28;20020;-75
2023/02/06 10:11:38;;;;;;;5.20;1.83;;;;;;;;;;5071847;28;20100;-75
2023/02/06 10:14:09;;;;;;;4.70;1.97;;;;;;;;;;5073685;28;20028;-75
2023/02/06 10:16:44;;;;;;;7.60;2.30;;;;;;;;;;5073019;28;20024;-75
2023/02/06 10:19:30;;;;;;;6.27;2.23;;;;;;;;;;5073489;28;20063;-75
2023/02/06 10:22:01;;;;;;;4.73;1.80;;;;;;;;;;5065221;28;20025;-75
2023/02/06 10:24:29;;;;;;;5.50;1.93;;;;;;;;;;5073301;28;20028;-75
2023/02/06 10:26:57;;;;;;;4.63;1.90;;;;;;;;;;5072190;28;20024;-75
2023/02/06 10:29:30;;;;;;;6.30;2.20;;;;;;;;;;5073252;28;20028;-75
2023/02/06 10:32:04;;;;;;;3.77;1.83;;;;;;;;;;5072144;28;20440;-75
2023/02/06 10:34:41;;;;;;;4.37;2.10;;;;;;;;;;5072651;28;20380;-76
2023/02/06 10:37:14;;;;;;;4.30;1.83;;;;;;;;;;5071785;28;20069;-75
2023/02/06 10:39:39;;;;;;;6.63;2.43;;;;;;;;;;5072792;28;20008;-75
2023/02/06 10:42:14;;;;;;;6.40;2.30;;;;;;;;;;5072291;28;20024;-75
2023/02/06 10:44:50;;;;;;;8.37;2.90;;;;;;;;;;5072678;28;20017;-76
2023/02/06 10:47:20;;;;;;;10.07;3.20;;;;;;;;;;5072666;28;20358;-75
2023/02/06 10:49:49;;;;;;;6.03;2.80;;;;;;;;;;5072781;28;20017;-75
2023/02/06 10:52:22;;;;;;;8.60;3.47;;;;;;;;;;5073165;28;20375;-75
2023/02/06 10:54:59;;;;;;;7.67;3.10;;;;;;;;;;5071519;28;20195;-75
2023/02/06 10:57:27;;;;;;;8.10;3.03;;;;;;;;;;5072919;28;20021;-75
2023/02/06 10:59:55;;;;;;;8.87;2.70;;;;;;;;;;5072470;28;20070;-75
2023/02/06 11:02:20;;;;;;;10.97;3.60;;;;;;;;;;5071285;28;20075;-75
2023/02/06 11:04:51;;;;;;;9.40;3.50;;;;;;;;;;5072492;28;20020;-75
2023/02/06 11:07:21;;;;;;;9.17;3.00;;;;;;;;;;5071750;28;20391;-75
2023/02/06 11:09:46;;;;;;;11.77;3.17;;;;;;;;;;5071197;28;20021;-75
2023/02/06 11:12:22;;;;;;;8.20;3.03;;;;;;;;;;5071204;28;20025;-76
2023/02/06 11:14:48;;;;;;;7.20;2.90;;;;;;;;;;5072102;28;20107;-75
2023/02/06 11:17:14;;;;;;;8.43;3.10;;;;;;;;;;5071175;28;20067;-75
2023/02/06 11:19:40;;;;;;;12.87;3.40;;;;;;;;;;5071123;28;20041;-76
2023/02/06 11:22:06;;;;;;;8.20;3.30;;;;;;;;;;5072281;28;20089;-75
2023/02/06 11:24:32;;;;;;;7.00;3.17;;;;;;;;;;5072404;28;20306;-75
2023/02/06 11:26:58;;;;;;;4.77;2.50;;;;;;;;;;5072011;28;20028;-75
2023/02/06 11:29:30;;;;;;;10.30;2.47;;;;;;;;;;5069967;28;20024;-75
2023/02/06 11:32:02;;;;;;;6.38;2.55;;;;;;;;;;5087312;28;20032;-75
2023/02/06 11:34:35;;;;;;;7.78;3.50;;;;;;;;;;5092495;28;20424;-75
2023/02/06 11:37:00;;;;;;;;;;;;;;;;;;5092913;28;20012;-75
2023/02/06 11:39:37;;;;;;;6.32;3.30;;;;;;;;;;5092341;28;19915;-76
2023/02/06 11:42:03;;;;;;;10.37;3.00;;;;;;;;;;5077162;28;20153;-75
2023/02/06 11:44:34;;;;;;;8.73;3.37;;;;;;;;;;5087337;28;20369;-75
2023/02/06 11:47:17;;;;;;;10.07;2.63;;;;;;;;;;5089103;28;20039;-75
2023/02/06 11:49:42;;;;;;;7.83;3.27;;;;;;;;;;5091525;28;20166;-76
2023/02/06 11:52:25;;;;;;;9.83;2.87;;;;;;;;;;5089303;28;20495;-75
2023/02/06 11:54:53;;;;;;;7.07;2.55;;;;;;;;;;5085787;28;20048;-75
2023/02/06 11:57:22;;;;;;;9.80;3.50;;;;;;;;;;5087761;28;20016;-75
2023/02/06 11:59:55;;;;;;;12.40;3.63;;;;;;;;;;5084273;28;20020;-76
2023/02/06 12:02:29;;;;;;;8.53;3.50;;;;;;;;;;5090785;28;20091;-75
2023/02/06 12:05:04;;;;;;;8.30;3.77;;;;;;;;;;5087234;28;20495;-75
2023/02/06 12:07:42;;;;;;;14.10;4.07;;;;;;;;;;5091324;28;20012;-75
2023/02/06 12:10:17;;;;;;;7.17;2.70;;;;;;;;;;5091001;28;20708;-75
2023/02/06 12:12:56;;;;;;;11.17;4.07;;;;;;;;;;5090326;28;20046;-75
2023/02/06 12:15:30;;;;;;;8.90;2.60;;;;;;;;;;5084186;28;20074;-75
2023/02/06 12:17:59;;;;;;;7.63;3.37;;;;;;;;;;5091778;28;20099;-75
2023/02/06 12:20:29;;;;;;;9.70;2.70;;;;;;;;;;5091287;28;20050;-75
2023/02/06 12:23:00;;;;;;;8.27;2.43;;;;;;;;;;5091541;28;20099;-75
2023/02/06 12:25:33;;;;;;;5.33;2.20;;;;;;;;;;5090422;28;20020;-75
2023/02/06 12:28:19;;;;;;;6.20;2.30;;;;;;;;;;5085572;28;20103;-75
2023/02/06 12:30:51;;;;;;;4.75;1.80;;;;;;;;;;5082825;28;20028;-76
2023/02/06 12:33:19;;;;;;;11.82;2.78;;;;;;;;;;5070187;28;20013;-75
2023/02/06 12:35:51;;;;;;;5.72;2.60;;;;;;;;;;5071328;28;20086;-75
2023/02/06 12:38:34;;;;;;;8.23;3.10;;;;;;;;;;5069981;28;20028;-75
2023/02/06 12:40:59;;;;;;;8.05;2.08;;;;;;;;;;5072895;28;20020;-75
2023/02/06 12:43:26;;;;;;;8.98;2.42;;;;;;;;;;5075337;28;20035;-75
2023/02/06 12:45:54;;;;;;;4.68;1.88;;;;;;;;;;5074981;28;20066;-75
2023/02/06 12:48:35;;;;;;;3.28;1.67;;;;;;;;;;5073789;28;20022;-75
2023/02/06 12:51:03;;;;;;;6.38;1.73;;;;;;;;;;5072905;28;20017;-76
2023/02/06 12:53:41;;;;;;;4.68;1.65;;;;;;;;;;5075137;28;20017;-76
2023/02/06 12:56:09;;;;;;;4.20;1.77;;;;;;;;;;5074785;28;20019;-76
2023/02/06 12:58:43;;;;;;;5.97;1.85;;;;;;;;;;5075177;28;20042;-76
2023/02/06 13:01:11;;;;;;;3.83;1.50;;;;;;;;;;5075071;28;20066;-75
2023/02/06 13:03:39;;;;;;;3.50;1.33;;;;;;;;;;5072937;28;20043;-76
2023/02/06 13:06:11;;;;;;;2.67;1.40;;;;;;;;;;5074865;28;20602;-75
2023/02/06 13:08:45;;;;;;;3.95;1.70;;;;;;;;;;5073442;28;20437;-76
2023/02/06 13:11:31;;;;;;;3.65;1.00;;;;;;;;;;5074424;28;20111;-76
2023/02/06 13:14:17;;;;;;;1.90;1.00;;;;;;;;;;5067474;28;20064;-75
2023/02/06 13:16:48;;;;;;;3.33;1.63;;;;;;;;;;5055575;28;20121;-75
2023/02/06 13:19:19;;;;;;;2.87;1.47;;;;;;;;;;5074362;28;20024;-76
2023/02/06 13:21:49;;;;;;;3.42;1.20;;;;;;;;;;5074393;28;20269;-76
2023/02/06 13:24:15;;;;;;;4.40;1.08;;;;;;;;;;5073591;28;20028;-76
2023/02/06 13:26:55;;;;;;;3.05;1.05;;;;;;;;;;5074370;28;20016;-76
2023/02/06 13:29:31;;;;;;;4.88;1.40;;;;;;;;;;5072750;28;20025;-75
2023/02/06 13:32:14;;;;;;;2.95;0.93;;;;;;;;;;5074063;28;20402;-76
2023/02/06 13:34:50;;;;;;;4.78;0.90;;;;;;;;;;5073558;28;20027;-76
2023/02/06 13:37:30;;;;;;;2.38;0.98;;;;;;;;;;5073677;28;20395;-76
2023/02/06 13:40:14;;;;;;;7.20;2.05;;;;;;;;;;5074594;28;20085;-75
2023/02/06 13:42:49;;;;;;;3.38;0.88;;;;;;;;;;5073947;28;20012;-75
2023/02/06 13:45:26;;;;;;;4.32;0.82;;;;;;;;;;5072879;28;20035;-76
2023/02/06 13:48:00;;;;;;;2.60;0.95;;;;;;;;;;5060297;28;20122;-75
2023/02/06 13:50:31;;;;;;;1.88;0.90;;;;;;;;;;5072044;28;20021;-75
2023/02/06 13:53:11;;;;;;;3.25;1.13;;;;;;;;;;5055584;28;20025;-75
2023/02/06 13:55:36;;;;;;;5.22;1.40;;;;;;;;;;5066844;28;20360;-76
2023/02/06 13:58:10;;;;;;;1.45;1.10;;;;;;;;;;5073246;28;20024;-75
2023/02/06 14:00:40;;;;;;;1.05;0.82;;;;;;;;;;5073885;28;20151;-76
2023/02/06 14:03:15;;;;;;;5.10;1.48;;;;;;;;;;5073774;28;20515;-75
2023/02/06 14:05:43;;;;;;;2.20;0.73;;;;;;;;;;5073637;28;20041;-76
2023/02/06 14:08:15;;;;;;;11.43;2.63;;;;;;;;;;5080589;28;20051;-76
2023/02/06 14:10:46;;;;;;;8.82;2.47;;;;;;;;;;5088454;28;20035;-75
2023/02/06 14:13:18;;;;;;;8.25;1.40;;;;;;;;;;5093854;28;20051;-75
2023/02/06 14:15:57;;;;;;;2.40;1.30;;;;;;;;;;5093761;28;20044;-76
2023/02/06 14:18:40;;;;;;;5.28;1.17;;;;;;;;;;5084501;28;20013;-76
2023/02/06 14:21:23;;;;;;;4.35;1.17;;;;;;;;;;5074458;28;20039;-75
2023/02/06 14:24:18;;;;;;;12.43;2.50;;;;;;;;;;5084753;28;20108;-76
2023/02/06 14:26:55;;;;;;;2.35;0.93;;;;;;;;;;5056636;28;20220;-76
2023/02/06 14:29:36;;;;;;;4.03;0.90;;;;;;;;;;5093694;28;20378;-76
2023/02/06 14:32:02;;;;;;;3.92;1.02;;;;;;;;;;5069685;28;20062;-76
2023/02/06 14:34:42;;;;;;;3.15;1.58;;;;;;;;;;5073778;28;20456;-76
2023/02/06 14:37:10;;;;;;;3.60;1.05;;;;;;;;;;5071853;28;20359;-76
2023/02/06 14:39:47;;;;;;;3.50;0.95;;;;;;;;;;5069596;28;20543;-75
2023/02/06 14:42:12;;;;;;;3.15;1.40;;;;;;;;;;5072488;28;20384;-75
2023/02/06 14:44:40;;;;;;;5.95;1.05;;;;;;;;;;5069544;28;20017;-75
2023/02/06 14:47:05;;;;;;;4.93;1.58;;;;;;;;;;5071100;28;20024;-75
2023/02/06 14:49:32;;;;;;;2.75;0.95;;;;;;;;;;5070020;28;20025;-75